Time;durP1;ratioP1;P1;durP2;ratioP2;P2;SDS_P1;SDS_P2;PMS_P1;PMS_P2;Temp;Humidity;BMP_temperature;BMP_pressure;BME280_temperature;BME280_humidity;BME280_pressure;Samples;Min_cycle;Max_cycle;Signal;HPM_P1;HPM_P2
2022/04/02 00:02:25;;;;;;;9.33;6.30;;;2.40;99.90;;;;;;5051779;28;20091;-78
2022/04/02 00:04:51;;;;;;;7.03;5.13;;;2.40;99.90;;;;;;5050479;28;20025;-77
2022/04/02 00:07:16;;;;;;;7.60;5.67;;;2.40;99.90;;;;;;5051188;28;20032;-78
2022/04/02 00:09:43;;;;;;;10.60;6.33;;;2.40;99.90;;;;;;5050671;28;20032;-78
2022/04/02 00:12:09;;;;;;;8.33;5.77;;;2.40;99.90;;;;;;5051221;28;20036;-77
2022/04/02 00:14:34;;;;;;;8.87;6.27;;;2.40;99.90;;;;;;5054064;28;20025;-78
2022/04/02 00:17:00;;;;;;;8.53;6.00;;;2.40;99.90;;;;;;5054774;28;20462;-77
2022/04/02 00:19:26;;;;;;;8.03;5.63;;;2.40;99.90;;;;;;5055940;28;20111;-77
2022/04/02 00:21:51;;;;;;;9.70;5.87;;;2.50;99.90;;;;;;5074693;28;20051;-78
2022/04/02 00:24:17;;;;;;;9.03;5.80;;;2.50;99.90;;;;;;5057673;28;20584;-77
2022/04/02 00:26:42;;;;;;;9.07;5.27;;;2.40;99.90;;;;;;5057360;28;20035;-78
2022/04/02 00:29:11;;;;;;;8.53;5.57;;;2.50;99.90;;;;;;5057820;28;20489;-77
2022/04/02 00:31:37;;;;;;;8.63;6.07;;;2.50;99.90;;;;;;5056633;28;20091;-78
2022/04/02 00:34:02;;;;;;;8.17;5.40;;;2.50;99.90;;;;;;5057342;28;20115;-77
2022/04/02 00:36:28;;;;;;;8.97;5.70;;;2.50;99.90;;;;;;5057377;28;20115;-77
2022/04/02 00:38:54;;;;;;;7.93;5.27;;;2.50;99.90;;;;;;5056586;28;20094;-77
2022/04/02 00:41:20;;;;;;;10.40;5.40;;;2.50;99.90;;;;;;5057368;28;20078;-77
2022/04/02 00:44:07;;;;;;;7.30;5.30;;;2.50;99.90;;;;;;5074567;28;20033;-77
2022/04/02 00:46:33;;;;;;;7.87;5.00;;;2.50;99.90;;;;;;5056936;28;20024;-79
2022/04/02 00:48:59;;;;;;;7.37;5.37;;;2.50;99.90;;;;;;5057634;28;20035;-77
2022/04/02 00:51:25;;;;;;;8.67;5.87;;;2.50;99.90;;;;;;5075330;28;20039;-77
2022/04/02 00:53:51;;;;;;;11.83;6.03;;;2.50;99.90;;;;;;5056834;28;20236;-76
2022/04/02 00:56:18;;;;;;;8.63;5.50;;;2.40;99.90;;;;;;5057174;28;20111;-76
2022/04/02 00:58:44;;;;;;;8.93;5.77;;;2.50;99.90;;;;;;5074315;28;20031;-77
2022/04/02 01:01:10;;;;;;;8.33;5.40;;;2.40;99.90;;;;;;5075242;28;20040;-78
2022/04/02 01:03:36;;;;;;;9.57;5.80;;;2.40;99.90;;;;;;5057092;28;20123;-81
2022/04/02 01:06:02;;;;;;;8.97;5.33;;;2.50;99.90;;;;;;5057584;28;20025;-78
2022/04/02 01:08:27;;;;;;;8.00;5.33;;;2.40;99.90;;;;;;5057541;28;20020;-78
2022/04/02 01:10:55;;;;;;;9.47;5.77;;;2.30;99.90;;;;;;5056887;28;20426;-78
2022/04/02 01:13:22;;;;;;;8.73;5.80;;;2.30;99.90;;;;;;5074973;28;20103;-78
2022/04/02 01:15:48;;;;;;;9.50;5.70;;;2.30;99.90;;;;;;5056758;28;20032;-78
2022/04/02 01:18:14;;;;;;;8.47;6.07;;;2.30;99.90;;;;;;5057132;28;20025;-78
2022/04/02 01:20:40;;;;;;;10.50;5.57;;;2.30;99.90;;;;;;5056303;28;20128;-78
2022/04/02 01:23:05;;;;;;;10.40;5.93;;;2.30;99.90;;;;;;5057125;28;20082;-77
2022/04/02 01:25:34;;;;;;;9.10;5.73;;;2.20;99.90;;;;;;5056717;28;20048;-77
2022/04/02 01:28:01;;;;;;;11.37;6.17;;;2.20;99.90;;;;;;5056950;28;20495;-78
2022/04/02 01:30:27;;;;;;;8.07;5.70;;;2.20;99.90;;;;;;5057134;28;20078;-78
2022/04/02 01:32:53;;;;;;;10.20;6.03;;;2.30;99.90;;;;;;5056260;28;20021;-78
2022/04/02 01:35:22;;;;;;;7.60;5.20;;;2.30;99.90;;;;;;5056690;28;20075;-78
2022/04/02 01:37:49;;;;;;;9.00;6.13;;;2.30;99.90;;;;;;5074121;28;20027;-78
2022/04/02 01:40:15;;;;;;;8.70;5.73;;;2.30;99.90;;;;;;5074505;28;20405;-77
2022/04/02 01:42:42;;;;;;;7.97;5.37;;;2.30;99.90;;;;;;5074043;28;20101;-78
2022/04/02 01:45:08;;;;;;;7.00;4.80;;;2.20;99.90;;;;;;5074067;28;20032;-78
2022/04/02 01:47:34;;;;;;;8.87;5.50;;;2.30;99.90;;;;;;5055826;28;20111;-82
2022/04/02 01:49:59;;;;;;;8.80;5.90;;;2.20;99.90;;;;;;5073937;28;20063;-79
2022/04/02 01:52:26;;;;;;;8.87;5.70;;;2.30;99.90;;;;;;5073729;28;20036;-77
2022/04/02 01:54:52;;;;;;;8.80;5.37;;;2.20;99.90;;;;;;5055338;28;20029;-78
2022/04/02 01:57:17;;;;;;;8.57;5.60;;;2.20;99.90;;;;;;5056305;28;20035;-78
2022/04/02 01:59:44;;;;;;;8.40;5.60;;;2.20;99.90;;;;;;5056104;28;20123;-78
2022/04/02 02:02:14;;;;;;;7.50;5.40;;;2.20;99.90;;;;;;5056573;28;20039;-78
2022/04/02 02:04:40;;;;;;;9.80;5.57;;;2.20;99.90;;;;;;5056004;28;20028;-79
2022/04/02 02:07:06;;;;;;;8.63;5.23;;;2.20;99.90;;;;;;5074009;28;20025;-79
2022/04/02 02:09:33;;;;;;;8.13;5.40;;;2.30;99.90;;;;;;5056155;28;20028;-78
2022/04/02 02:12:00;;;;;;;9.00;5.33;;;2.30;99.90;;;;;;5055031;28;20040;-78
2022/04/02 02:14:26;;;;;;;7.73;5.43;;;2.30;99.90;;;;;;5055940;28;20024;-79
2022/04/02 02:16:51;;;;;;;8.37;5.73;;;2.30;99.90;;;;;;5055200;28;20031;-78
2022/04/02 02:19:17;;;;;;;11.03;6.23;;;2.30;99.90;;;;;;5055697;28;20029;-78
2022/04/02 02:21:43;;;;;;;7.37;5.87;;;2.30;99.90;;;;;;5072807;28;20052;-78
2022/04/02 02:24:09;;;;;;;9.60;6.00;;;2.30;99.90;;;;;;5055913;28;20036;-78
2022/04/02 02:26:35;;;;;;;11.43;6.30;;;2.30;99.90;;;;;;5055937;28;20021;-77
2022/04/02 02:29:04;;;;;;;7.13;5.23;;;2.30;99.90;;;;;;5054866;28;20125;-77
2022/04/02 02:31:31;;;;;;;8.07;5.73;;;2.30;99.90;;;;;;5073234;28;20028;-78
2022/04/02 02:36:41;;;;;;;8.50;5.93;;;2.30;99.90;;;;;;5072388;28;20462;-79
2022/04/02 02:39:07;;;;;;;10.13;6.03;;;2.30;99.90;;;;;;5073114;28;20100;-77
2022/04/02 02:41:33;;;;;;;8.20;5.87;;;2.20;99.90;;;;;;5073426;28;20046;-78
2022/04/02 02:43:59;;;;;;;8.43;6.07;;;2.20;99.90;;;;;;5054897;28;20115;-78
2022/04/02 02:46:25;;;;;;;8.63;5.93;;;2.30;99.90;;;;;;5055195;28;20178;-78
2022/04/02 02:48:50;;;;;;;7.43;5.60;;;2.20;99.90;;;;;;5054937;28;20032;-78
2022/04/02 02:51:16;;;;;;;9.73;6.63;;;2.30;99.90;;;;;;5073019;28;20086;-78
2022/04/02 02:53:44;;;;;;;10.13;6.27;;;2.20;99.90;;;;;;5055132;28;20028;-78
2022/04/02 02:56:10;;;;;;;10.50;6.50;;;2.30;99.90;;;;;;5055322;28;20025;-78
2022/04/02 02:58:35;;;;;;;8.10;6.03;;;2.20;99.90;;;;;;5055244;28;20024;-77
2022/04/02 03:01:01;;;;;;;8.20;6.50;;;2.20;99.90;;;;;;5054747;28;20037;-78
2022/04/02 03:03:27;;;;;;;9.90;6.80;;;2.30;99.90;;;;;;5055071;28;20111;-78
2022/04/02 03:05:53;;;;;;;8.37;5.87;;;2.20;99.90;;;;;;5054784;28;20090;-78
2022/04/02 03:08:19;;;;;;;8.60;6.10;;;2.20;99.90;;;;;;5055168;28;20111;-78
2022/04/02 03:10:45;;;;;;;7.43;5.93;;;2.20;99.90;;;;;;5072573;28;20044;-78
2022/04/02 03:13:11;;;;;;;9.57;5.87;;;2.20;99.90;;;;;;5055367;28;20060;-77
2022/04/02 03:15:36;;;;;;;10.53;6.50;;;2.20;99.90;;;;;;5072540;28;20404;-77
2022/04/02 03:18:07;;;;;;;10.43;6.40;;;2.20;99.90;;;;;;5072602;28;20028;-78
2022/04/02 03:20:34;;;;;;;8.47;5.67;;;2.10;99.90;;;;;;5054838;28;20052;-77
2022/04/02 03:23:00;;;;;;;11.07;6.43;;;2.20;99.90;;;;;;5054816;28;20550;-77
2022/04/02 03:25:26;;;;;;;10.97;6.23;;;2.20;99.90;;;;;;5055313;28;20092;-78
2022/04/02 03:27:51;;;;;;;9.63;5.83;;;2.20;99.90;;;;;;5072038;28;20028;-78
2022/04/02 03:30:23;;;;;;;8.43;6.07;;;2.20;99.90;;;;;;5055109;28;20032;-77
2022/04/02 03:32:51;;;;;;;10.40;5.95;;;2.20;99.90;;;;;;5054774;28;20537;-78
2022/04/02 03:35:18;;;;;;;8.47;6.53;;;2.10;99.90;;;;;;5055174;28;20384;-77
2022/04/02 03:37:45;;;;;;;9.23;6.53;;;2.10;99.90;;;;;;5054498;28;20124;-79
2022/04/02 03:40:15;;;;;;;9.43;6.40;;;2.10;99.90;;;;;;5072461;28;20029;-78
2022/04/02 03:42:42;;;;;;;10.40;5.97;;;2.10;99.90;;;;;;5054983;28;20035;-79
2022/04/02 03:45:09;;;;;;;8.57;6.23;;;2.10;99.90;;;;;;5072633;28;20369;-78
2022/04/02 03:47:35;;;;;;;9.73;6.30;;;2.10;99.90;;;;;;5074875;28;20082;-78
2022/04/02 03:50:01;;;;;;;10.10;6.17;;;2.10;99.90;;;;;;5058382;28;20035;-78
2022/04/02 03:52:27;;;;;;;8.20;5.97;;;2.10;99.90;;;;;;5058793;28;20036;-78
2022/04/02 03:54:53;;;;;;;7.37;5.57;;;2.20;99.90;;;;;;5058432;28;20029;-77
2022/04/02 03:57:19;;;;;;;9.90;5.80;;;2.10;99.90;;;;;;5058363;28;20032;-77
2022/04/02 03:59:46;;;;;;;8.70;6.40;;;2.10;99.90;;;;;;5075966;28;20094;-79
2022/04/02 04:02:12;;;;;;;9.40;5.70;;;2.10;99.90;;;;;;5076206;28;20031;-77
2022/04/02 04:04:39;;;;;;;8.97;5.50;;;2.10;99.90;;;;;;5076390;28;20051;-77
2022/04/02 04:07:05;;;;;;;9.93;6.20;;;2.10;99.90;;;;;;5057984;28;20025;-77
2022/04/02 04:09:31;;;;;;;8.30;5.57;;;2.10;99.90;;;;;;5076044;28;20111;-77
2022/04/02 04:11:57;;;;;;;8.67;5.60;;;2.10;99.90;;;;;;5057491;28;20537;-78
2022/04/02 04:14:24;;;;;;;8.53;5.47;;;2.10;99.90;;;;;;5057750;28;20111;-77
2022/04/02 04:16:50;;;;;;;7.33;5.50;;;2.10;99.90;;;;;;5057436;28;20028;-77
2022/04/02 04:19:16;;;;;;;9.70;5.10;;;2.10;99.90;;;;;;5058443;28;20422;-77
2022/04/02 04:21:43;;;;;;;9.43;5.23;;;2.00;99.90;;;;;;5057625;28;20055;-77
2022/04/02 04:24:10;;;;;;;9.10;5.67;;;2.10;99.90;;;;;;5057465;28;20476;-77
2022/04/02 04:26:36;;;;;;;10.17;5.33;;;2.10;99.90;;;;;;5058057;28;20029;-77
2022/04/02 04:29:02;;;;;;;9.40;5.50;;;2.00;99.90;;;;;;5075571;28;20060;-77
2022/04/02 04:31:28;;;;;;;10.77;5.20;;;2.00;99.90;;;;;;5057941;28;20032;-77
2022/04/02 04:33:54;;;;;;;8.30;5.07;;;2.00;99.90;;;;;;5075012;28;20036;-77
2022/04/02 04:36:20;;;;;;;9.53;4.87;;;2.00;99.90;;;;;;5075781;28;20115;-77
2022/04/02 04:38:46;;;;;;;8.03;5.53;;;2.00;99.90;;;;;;5075431;28;20346;-79
2022/04/02 04:41:13;;;;;;;6.50;4.77;;;2.00;99.90;;;;;;5057684;28;20036;-77
2022/04/02 04:43:41;;;;;;;8.57;5.23;;;2.00;99.90;;;;;;5075043;28;20039;-76
2022/04/02 04:46:08;;;;;;;6.47;5.03;;;2.10;99.90;;;;;;5057161;28;20213;-77
2022/04/02 04:48:35;;;;;;;8.70;4.50;;;2.10;99.90;;;;;;5057655;28;20031;-76
2022/04/02 04:51:02;;;;;;;7.67;5.00;;;2.00;99.90;;;;;;5057027;28;20033;-77
2022/04/02 04:53:28;;;;;;;7.93;5.07;;;2.10;99.90;;;;;;5075174;28;20385;-77
2022/04/02 04:55:54;;;;;;;7.97;5.60;;;2.00;99.90;;;;;;5057320;28;20024;-78
2022/04/02 04:58:20;;;;;;;8.20;5.33;;;2.00;99.90;;;;;;5075028;28;20094;-78
2022/04/02 05:00:46;;;;;;;7.30;5.00;;;1.90;99.90;;;;;;5057462;28;20025;-79
2022/04/02 05:03:12;;;;;;;7.77;5.00;;;1.90;99.90;;;;;;5075009;28;20024;-77
2022/04/02 05:05:38;;;;;;;8.67;5.27;;;2.00;99.90;;;;;;5057674;28;20369;-78
2022/04/02 05:08:07;;;;;;;10.00;5.50;;;1.90;99.90;;;;;;5074768;28;20021;-78
2022/04/02 05:10:39;;;;;;;10.63;5.90;;;1.90;99.90;;;;;;5057463;28;20024;-78
2022/04/02 05:13:07;;;;;;;10.82;6.03;;;1.90;99.90;;;;;;5056713;28;20119;-78
2022/04/02 05:15:34;;;;;;;10.33;5.80;;;2.00;99.90;;;;;;5057193;28;20461;-78
2022/04/02 05:18:00;;;;;;;12.83;7.00;;;2.00;99.90;;;;;;5056253;28;20032;-78
2022/04/02 05:20:26;;;;;;;11.27;6.30;;;2.00;99.90;;;;;;5056259;28;20049;-78
2022/04/02 05:22:52;;;;;;;8.77;5.93;;;1.90;99.90;;;;;;5073871;28;20150;-79
2022/04/02 05:25:17;;;;;;;11.47;6.77;;;1.90;99.90;;;;;;5057158;28;20178;-78
2022/04/02 05:27:43;;;;;;;12.33;6.40;;;2.00;99.90;;;;;;5056775;28;20040;-78
2022/04/02 05:30:11;;;;;;;12.30;6.67;;;1.90;99.90;;;;;;5073976;28;20549;-77
2022/04/02 05:32:37;;;;;;;10.03;6.40;;;1.90;99.90;;;;;;5056414;28;20028;-78
2022/04/02 05:35:03;;;;;;;10.27;5.93;;;1.90;99.90;;;;;;5055905;28;20032;-78
2022/04/02 05:37:29;;;;;;;12.23;6.30;;;1.90;99.90;;;;;;5056222;28;20032;-78
2022/04/02 05:39:55;;;;;;;9.40;6.47;;;1.90;99.90;;;;;;5055783;28;20082;-78
2022/04/02 05:42:21;;;;;;;9.83;6.33;;;1.90;99.90;;;;;;5074202;28;20032;-77
2022/04/02 05:44:47;;;;;;;9.83;6.13;;;1.90;99.90;;;;;;5074114;28;20529;-77
2022/04/02 05:47:13;;;;;;;10.53;6.07;;;1.90;99.90;;;;;;5062097;28;20090;-78
2022/04/02 05:49:38;;;;;;;9.80;6.50;;;1.90;99.90;;;;;;5073372;28;20052;-77
2022/04/02 05:52:04;;;;;;;10.47;5.93;;;1.90;99.90;;;;;;5072332;28;20067;-78
2022/04/02 05:54:31;;;;;;;9.10;5.90;;;2.00;99.90;;;;;;5073402;28;20059;-78
2022/04/02 05:56:56;;;;;;;9.30;5.87;;;1.90;99.90;;;;;;5072686;28;20029;-78
2022/04/02 05:59:23;;;;;;;9.77;6.40;;;1.90;99.90;;;;;;5073403;28;20094;-77
2022/04/02 06:01:48;;;;;;;8.73;5.90;;;1.90;99.90;;;;;;5073053;28;20035;-78
2022/04/02 06:04:14;;;;;;;9.93;5.57;;;2.00;99.90;;;;;;5073578;28;20029;-77
2022/04/02 06:06:40;;;;;;;9.57;5.63;;;1.90;99.90;;;;;;5073876;28;20385;-77
2022/04/02 06:09:06;;;;;;;8.73;5.80;;;2.00;99.90;;;;;;5072554;28;20025;-78
2022/04/02 06:11:32;;;;;;;8.37;5.50;;;2.00;99.90;;;;;;5072054;28;20040;-77
2022/04/02 06:13:58;;;;;;;7.53;5.17;;;2.00;99.90;;;;;;5072306;28;20021;-78
2022/04/02 06:16:25;;;;;;;6.13;4.97;;;2.00;99.90;;;;;;5072767;28;20021;-78
2022/04/02 06:18:51;;;;;;;6.53;4.47;;;2.00;99.90;;;;;;5073496;28;20020;-79
2022/04/02 06:21:18;;;;;;;8.20;5.43;;;2.00;99.90;;;;;;5071835;28;20048;-78
2022/04/02 06:23:44;;;;;;;7.90;4.67;;;2.00;99.90;;;;;;5072187;28;20055;-77
2022/04/02 06:26:10;;;;;;;8.40;5.23;;;2.00;99.90;;;;;;5071308;28;20106;-78
2022/04/02 06:28:40;;;;;;;8.37;4.50;;;2.10;99.90;;;;;;5073411;28;20039;-77
2022/04/02 06:31:06;;;;;;;8.17;4.87;;;2.10;99.90;;;;;;5072699;28;20071;-78
2022/04/02 06:33:32;;;;;;;9.23;5.07;;;2.00;99.90;;;;;;5056801;28;20497;-78
2022/04/02 06:35:59;;;;;;;6.60;4.30;;;2.10;99.90;;;;;;5074733;28;20048;-79
2022/04/02 06:38:25;;;;;;;5.50;4.23;;;2.00;99.90;;;;;;5060813;28;20058;-79
2022/04/02 06:40:51;;;;;;;6.13;4.53;;;2.10;99.90;;;;;;5069957;28;20048;-80
2022/04/02 06:43:17;;;;;;;7.03;4.63;;;2.10;99.90;;;;;;5068457;28;20119;-79
2022/04/02 06:45:42;;;;;;;5.67;4.33;;;2.10;99.90;;;;;;5056495;28;20074;-78
2022/04/02 06:48:08;;;;;;;8.03;4.90;;;2.10;99.90;;;;;;5081828;28;20545;-78
2022/04/02 06:50:34;;;;;;;7.00;4.73;;;2.10;99.90;;;;;;5065101;28;20070;-78
2022/04/02 06:52:59;;;;;;;6.93;4.30;;;2.10;99.90;;;;;;5090932;28;20113;-78
2022/04/02 06:55:25;;;;;;;6.63;4.90;;;2.10;99.90;;;;;;5055789;28;20024;-77
2022/04/02 06:57:58;;;;;;;8.67;4.43;;;2.20;99.90;;;;;;5059872;28;20802;-78
2022/04/02 07:00:24;;;;;;;9.40;4.70;;;2.20;99.90;;;;;;5064041;28;20028;-78
2022/04/02 07:02:49;;;;;;;6.00;4.30;;;2.20;99.90;;;;;;5086099;28;20039;-79
2022/04/02 07:05:16;;;;;;;6.17;4.20;;;2.20;99.90;;;;;;5056018;28;20520;-78
2022/04/02 07:07:42;;;;;;;7.00;4.93;;;2.20;99.90;;;;;;5053861;28;20493;-78
2022/04/02 07:10:09;;;;;;;6.67;4.57;;;2.20;99.90;;;;;;5053390;28;20024;-78
2022/04/02 07:12:35;;;;;;;8.07;4.93;;;2.20;99.90;;;;;;5054675;28;20040;-77
2022/04/02 07:15:00;;;;;;;8.93;5.30;;;2.20;99.90;;;;;;5054305;28;20048;-78
2022/04/02 07:17:27;;;;;;;7.97;4.73;;;2.20;99.90;;;;;;5072485;28;20465;-78
2022/04/02 07:19:56;;;;;;;9.37;4.90;;;2.20;99.90;;;;;;5054109;28;20075;-79
2022/04/02 07:22:23;;;;;;;10.00;5.33;;;2.20;99.90;;;;;;5073010;28;20493;-78
2022/04/02 07:24:51;;;;;;;7.83;4.77;;;2.20;99.90;;;;;;5075504;28;20047;-78
2022/04/02 07:27:21;;;;;;;7.70;5.03;;;2.20;99.90;;;;;;5074419;28;20528;-79
2022/04/02 07:29:49;;;;;;;7.23;4.83;;;2.30;99.90;;;;;;5075350;28;20040;-78
2022/04/02 07:32:15;;;;;;;13.90;5.83;;;2.30;99.90;;;;;;5064692;28;20052;-76
2022/04/02 07:34:40;;;;;;;8.10;5.27;;;2.20;99.90;;;;;;5075312;28;20074;-78
2022/04/02 07:37:28;;;;;;;8.87;5.27;;;2.30;99.90;;;;;;5065550;28;20478;-77
2022/04/02 07:40:05;;;;;;;8.53;5.00;;;2.30;99.90;;;;;;5054794;28;20016;-81
2022/04/02 07:42:45;;;;;;;8.80;5.00;;;2.30;99.90;;;;;;5075684;28;20079;-78
2022/04/02 07:45:14;;;;;;;10.07;4.90;;;2.20;99.90;;;;;;5075030;28;20021;-77
2022/04/02 07:47:48;;;;;;;10.07;5.07;;;2.30;99.90;;;;;;5068993;28;20024;-77
2022/04/02 07:50:15;;;;;;;7.30;4.60;;;2.30;99.90;;;;;;5064704;28;20473;-78
2022/04/02 07:52:46;;;;;;;9.17;4.73;;;2.40;99.90;;;;;;5062855;28;20489;-78
2022/04/02 07:55:13;;;;;;;7.47;4.90;;;2.40;99.90;;;;;;5066518;28;20044;-78
2022/04/02 07:57:47;;;;;;;7.87;4.73;;;2.50;99.90;;;;;;5072685;28;20024;-79
2022/04/02 08:00:15;;;;;;;8.63;4.97;;;2.50;99.90;;;;;;5073552;28;20037;-79
2022/04/02 08:02:46;;;;;;;8.20;4.83;;;2.50;99.90;;;;;;5074541;28;20098;-78
2022/04/02 08:05:14;;;;;;;8.48;4.90;;;2.50;99.90;;;;;;5065237;28;20028;-82
2022/04/02 08:07:49;;;;;;;8.63;4.80;;;2.40;99.90;;;;;;5061222;28;20055;-78
2022/04/02 08:10:16;;;;;;;10.80;5.50;;;2.50;99.90;;;;;;5067391;28;20070;-77
2022/04/02 08:12:42;;;;;;;7.17;4.83;;;2.40;99.90;;;;;;5065252;28;20033;-78
2022/04/02 08:15:11;;;;;;;6.60;4.73;;;2.40;99.90;;;;;;5074163;28;20388;-78
2022/04/02 08:17:41;;;;;;;9.00;5.17;;;2.40;99.90;;;;;;5055156;28;20124;-77
2022/04/02 08:20:08;;;;;;;5.90;4.40;;;2.50;99.90;;;;;;5035963;28;20091;-79
2022/04/02 08:22:34;;;;;;;7.57;4.33;;;2.50;99.90;;;;;;5058417;28;20545;-79
2022/04/02 08:25:00;;;;;;;7.93;4.67;;;2.60;99.90;;;;;;5059116;28;20037;-79
2022/04/02 08:27:31;;;;;;;7.27;4.90;;;2.60;99.90;;;;;;5087411;28;20046;-79
2022/04/02 08:30:15;;;;;;;7.57;4.72;;;2.70;99.90;;;;;;5086343;28;20107;-79
2022/04/02 08:33:06;;;;;;;6.53;4.53;;;2.70;99.90;;;;;;5060355;28;20063;-80
2022/04/02 08:35:38;;;;;;;8.93;4.60;;;2.70;99.90;;;;;;5070524;28;20021;-78
2022/04/02 08:38:17;;;;;;;8.67;5.00;;;2.80;99.90;;;;;;5072722;28;20043;-79
2022/04/02 08:40:48;;;;;;;6.00;4.60;;;2.80;99.90;;;;;;5067309;28;20039;-78
2022/04/02 08:43:36;;;;;;;7.40;4.30;;;2.80;99.90;;;;;;5057355;28;20489;-79
2022/04/02 08:46:26;;;;;;;8.57;4.60;;;2.90;99.90;;;;;;5067402;28;20058;-77
2022/04/02 08:49:06;;;;;;;5.73;4.20;;;2.90;99.90;;;;;;5086389;28;20028;-78
2022/04/02 08:51:45;;;;;;;7.83;4.70;;;2.90;99.90;;;;;;5057832;28;20089;-78
2022/04/02 08:54:24;;;;;;;6.53;4.73;;;2.90;99.90;;;;;;5066052;28;20036;-78
2022/04/02 08:56:55;;;;;;;8.33;4.67;;;3.00;99.90;;;;;;5067800;28;20039;-78
2022/04/02 08:59:36;;;;;;;5.97;4.30;;;3.00;99.90;;;;;;5057359;28;20035;-78
2022/04/02 09:02:20;;;;;;;5.60;4.00;;;3.00;99.90;;;;;;5084845;28;20032;-78
2022/04/02 09:05:11;;;;;;;5.30;3.80;;;3.00;99.90;;;;;;5067393;28;20024;-78
2022/04/02 09:08:10;;;;;;;5.57;3.97;;;3.00;99.90;;;;;;5059070;28;20024;-78
2022/04/02 09:10:58;;;;;;;6.33;3.67;;;3.00;99.90;;;;;;5080427;28;20382;-78
2022/04/02 09:13:36;;;;;;;5.67;3.93;;;3.00;99.90;;;;;;5069982;28;20089;-78
2022/04/02 09:16:07;;;;;;;4.60;3.70;;;3.00;99.90;;;;;;5060290;28;20384;-78
2022/04/02 09:19:09;;;;;;;5.45;3.70;;;3.00;99.90;;;;;;5080795;28;20029;-79
2022/04/02 09:22:16;;;;;;;5.67;3.50;;;3.00;99.90;;;;;;5069118;28;20501;-79
2022/04/02 09:24:59;;;;;;;4.97;3.13;;;3.00;99.90;;;;;;5020394;28;20178;-78
2022/04/02 09:28:31;;;;;;;4.93;3.47;;;3.00;99.90;;;;;;5067932;28;20024;-79
2022/04/02 09:31:02;;;;;;;7.40;3.33;;;2.90;99.90;;;;;;5068950;28;20030;-78
2022/04/02 09:34:11;;;;;;;4.70;3.40;;;2.90;99.90;;;;;;5079119;28;20112;-78
2022/04/02 09:37:00;;;;;;;5.73;3.43;;;2.90;99.90;;;;;;5061855;28;20040;-79
2022/04/02 09:39:48;;;;;;;5.57;3.50;;;2.80;99.90;;;;;;5069296;28;20028;-78
2022/04/02 09:42:28;;;;;;;5.83;3.00;;;2.70;99.90;;;;;;5079714;28;20554;-78
2022/04/02 09:45:01;;;;;;;7.90;3.50;;;2.70;99.90;;;;;;5058799;28;20063;-78
2022/04/02 09:47:54;;;;;;;6.77;3.97;;;2.70;99.90;;;;;;5069483;28;20024;-79
2022/04/02 09:50:22;;;;;;;7.77;3.23;;;2.70;99.90;;;;;;5080207;28;20028;-79
2022/04/02 09:53:21;;;;;;;7.97;3.40;;;2.80;99.90;;;;;;5059248;28;20033;-77
2022/04/02 09:56:14;;;;;;;7.10;3.53;;;2.80;99.90;;;;;;5043316;28;20039;-78
2022/04/02 09:59:12;;;;;;;6.10;3.53;;;2.80;99.90;;;;;;5077260;28;20024;-78
2022/04/02 10:02:04;;;;;;;4.37;3.20;;;2.90;99.90;;;;;;5017781;28;20040;-78
2022/04/02 10:04:41;;;;;;;4.80;3.17;;;2.90;99.90;;;;;;5054624;28;20111;-78
2022/04/02 10:07:33;;;;;;;6.50;3.33;;;2.80;99.90;;;;;;5074354;28;20021;-78
2022/04/02 10:10:01;;;;;;;5.15;3.47;;;2.80;99.90;;;;;;5031817;28;20080;-82
2022/04/02 10:12:28;;;;;;;6.53;3.30;;;2.90;99.90;;;;;;5053923;28;20401;-80
2022/04/02 10:14:59;;;;;;;5.43;3.90;;;2.90;99.90;;;;;;5058364;28;20032;-79
2022/04/02 10:17:28;;;;;;;8.27;3.40;;;3.00;99.90;;;;;;5087869;28;20020;-79
2022/04/02 10:19:57;;;;;;;5.13;3.40;;;3.00;99.90;;;;;;5058335;28;20024;-79
2022/04/02 10:22:37;;;;;;;5.50;3.67;;;3.00;99.90;;;;;;5062023;28;20064;-79
2022/04/02 10:25:07;;;;;;;6.33;3.77;;;3.00;99.90;;;;;;5085442;28;20055;-79
2022/04/02 10:27:36;;;;;;;8.13;4.13;;;3.00;99.90;;;;;;5052519;28;20059;-79
2022/04/02 10:30:03;;;;;;;7.23;3.40;;;2.90;99.90;;;;;;5058892;28;20028;-79
2022/04/02 10:32:52;;;;;;;8.23;3.87;;;2.90;99.90;;;;;;5061497;28;20045;-78
2022/04/02 10:35:20;;;;;;;6.70;3.73;;;3.10;99.90;;;;;;5068624;28;20411;-79
2022/04/02 10:37:48;;;;;;;8.20;3.87;;;3.10;99.90;;;;;;5075261;28;20085;-79
2022/04/02 10:40:18;;;;;;;8.63;3.53;;;3.10;99.90;;;;;;5081056;28;20025;-79
2022/04/02 10:42:53;;;;;;;6.47;4.00;;;3.00;99.90;;;;;;5065842;28;20028;-79
2022/04/02 10:45:20;;;;;;;8.27;3.83;;;3.00;99.90;;;;;;5055242;28;20029;-79
2022/04/02 10:48:05;;;;;;;7.77;3.60;;;3.00;99.90;;;;;;5067077;28;20025;-79
2022/04/02 10:50:32;;;;;;;6.83;3.60;;;3.00;99.90;;;;;;5082168;28;20031;-79
2022/04/02 10:53:02;;;;;;;7.93;4.03;;;2.90;99.90;;;;;;5057387;28;20035;-79
2022/04/02 10:55:29;;;;;;;6.73;3.47;;;2.80;99.90;;;;;;5068503;28;20073;-80
2022/04/02 10:58:01;;;;;;;5.17;3.30;;;2.80;99.90;;;;;;5054141;28;20032;-80
2022/04/02 11:00:28;;;;;;;6.57;4.10;;;2.80;99.90;;;;;;5062996;28;20048;-79
2022/04/02 11:03:04;;;;;;;5.90;4.20;;;2.80;99.90;;;;;;5072799;28;20056;-79
2022/04/02 11:05:37;;;;;;;6.67;3.63;;;2.80;99.90;;;;;;5054974;28;20024;-79
2022/04/02 11:08:11;;;;;;;8.03;3.87;;;2.80;99.90;;;;;;5049821;28;20025;-79
2022/04/02 11:10:37;;;;;;;5.50;3.80;;;2.80;99.90;;;;;;5044377;28;20025;-78
2022/04/02 11:13:08;;;;;;;8.30;3.93;;;2.80;99.90;;;;;;5033818;28;20040;-78
2022/04/02 11:15:40;;;;;;;5.43;3.80;;;2.80;99.90;;;;;;5034948;28;20021;-78
2022/04/02 11:18:16;;;;;;;8.20;4.20;;;2.80;99.90;;;;;;5034629;28;20024;-79
2022/04/02 11:20:42;;;;;;;7.53;3.87;;;2.70;99.90;;;;;;5051843;28;20052;-79
2022/04/02 11:23:08;;;;;;;8.57;4.03;;;2.70;99.90;;;;;;5034156;28;20140;-79
2022/04/02 11:25:39;;;;;;;7.13;4.23;;;2.70;99.90;;;;;;5035066;28;20490;-78
2022/04/02 11:28:05;;;;;;;7.32;4.25;;;2.70;99.90;;;;;;5042965;28;20040;-79
2022/04/02 11:30:33;;;;;;;7.27;4.23;;;2.70;99.90;;;;;;5054707;28;20032;-78
2022/04/02 11:33:20;;;;;;;6.77;4.10;;;2.70;99.90;;;;;;5069452;28;20040;-79
2022/04/02 11:35:48;;;;;;;8.43;4.20;;;2.70;99.90;;;;;;5055033;28;20025;-78
2022/04/02 11:38:23;;;;;;;7.43;3.93;;;2.60;99.90;;;;;;5071841;28;20031;-78
2022/04/02 11:41:10;;;;;;;8.10;4.77;;;2.60;99.90;;;;;;5052859;28;20032;-78
2022/04/02 11:43:39;;;;;;;8.47;4.33;;;2.70;99.90;;;;;;5046192;28;20041;-79
2022/04/02 11:46:20;;;;;;;8.03;4.53;;;2.70;99.90;;;;;;5059109;28;20024;-79
2022/04/02 11:48:59;;;;;;;7.00;4.33;;;2.70;99.90;;;;;;5054650;28;20024;-79
2022/04/02 11:51:30;;;;;;;7.40;4.47;;;2.70;99.90;;;;;;5059469;28;20117;-79
2022/04/02 11:54:10;;;;;;;7.03;4.00;;;2.70;99.90;;;;;;5061315;28;20036;-81
2022/04/02 11:56:49;;;;;;;9.90;4.30;;;2.80;99.90;;;;;;5059518;28;20024;-93
2022/04/02 11:59:17;;;;;;;7.87;4.10;;;2.70;99.90;;;;;;5080048;28;20024;-81
2022/04/02 12:01:45;;;;;;;7.63;4.47;;;2.80;99.90;;;;;;5057594;28;20031;-78
2022/04/02 12:04:19;;;;;;;7.80;4.77;;;2.70;99.90;;;;;;5055505;28;20031;-80
2022/04/02 12:06:51;;;;;;;6.10;4.00;;;2.80;99.90;;;;;;5067327;28;20028;-79
2022/04/02 12:09:24;;;;;;;9.32;4.30;;;2.80;99.90;;;;;;5057958;28;20469;-79
2022/04/02 12:11:59;;;;;;;8.10;4.60;;;2.80;99.90;;;;;;5063375;28;20043;-79
2022/04/02 12:14:38;;;;;;;9.63;4.37;;;2.80;99.90;;;;;;5070909;28;20085;-79
2022/04/02 12:17:11;;;;;;;6.17;4.47;;;2.90;99.90;;;;;;5080434;28;20028;-78
2022/04/02 12:19:47;;;;;;;6.47;4.53;;;2.90;99.90;;;;;;5061914;28;20069;-79
2022/04/02 12:22:27;;;;;;;9.83;5.10;;;3.00;99.90;;;;;;5059317;28;20045;-79
2022/04/02 12:25:00;;;;;;;12.30;5.17;;;2.90;99.90;;;;;;5067313;28;20365;-78
2022/04/02 12:27:30;;;;;;;11.37;5.20;;;2.90;99.90;;;;;;5063008;28;20106;-78
2022/04/02 12:29:58;;;;;;;8.17;5.30;;;2.90;99.90;;;;;;5049565;28;20021;-80
2022/04/02 12:32:32;;;;;;;6.53;4.60;;;2.80;99.90;;;;;;5060026;28;20025;-82
2022/04/02 12:35:00;;;;;;;7.47;4.67;;;2.80;99.90;;;;;;5061972;28;20120;-82
2022/04/02 12:37:32;;;;;;;7.17;4.47;;;2.90;99.90;;;;;;5057746;28;20060;-77
2022/04/02 12:40:20;;;;;;;7.63;4.63;;;2.90;99.90;;;;;;5049718;28;20135;-77
2022/04/02 12:42:54;;;;;;;6.67;4.03;;;2.90;99.90;;;;;;5059248;28;20174;-77
2022/04/02 12:45:31;;;;;;;8.23;4.33;;;3.00;99.90;;;;;;5062697;28;20063;-78
2022/04/02 12:48:07;;;;;;;7.90;4.93;;;3.00;99.90;;;;;;5049180;28;20055;-78
2022/04/02 12:50:54;;;;;;;8.93;4.77;;;3.00;99.90;;;;;;5058836;28;20093;-77
2022/04/02 12:53:35;;;;;;;8.27;5.03;;;3.10;99.90;;;;;;5059933;28;20510;-77
2022/04/02 12:56:05;;;;;;;10.47;4.77;;;3.10;99.90;;;;;;5050092;28;20028;-77
2022/04/02 12:58:37;;;;;;;9.03;5.50;;;3.10;99.90;;;;;;5056062;28;20033;-78
2022/04/02 13:01:27;;;;;;;9.10;4.97;;;3.10;99.90;;;;;;5061793;28;20599;-79
2022/04/02 13:04:00;;;;;;;9.77;4.87;;;3.30;99.90;;;;;;5041164;28;20028;-79
2022/04/02 13:06:46;;;;;;;9.73;5.10;;;3.20;99.90;;;;;;5077019;28;20063;-78
2022/04/02 13:09:16;;;;;;;8.27;5.10;;;3.20;99.90;;;;;;5058537;28;20031;-78
2022/04/02 13:11:56;;;;;;;7.83;4.73;;;3.30;99.90;;;;;;5066595;28;20049;-81
2022/04/02 13:14:24;;;;;;;18.33;9.57;;;3.30;99.90;;;;;;5051950;28;20021;-76
2022/04/02 13:17:05;;;;;;;59.87;22.00;;;3.40;99.90;;;;;;5058945;28;20028;-76